sensor_id;sensor_type;location;lat;lon;timestamp;P1;durP1;ratioP1;P2;durP2;ratioP2
69523;SDS011;56723;42.694;23.286;2022-10-26T00:00:50;13.00;;;6.03;;
69523;SDS011;56723;42.694;23.286;2022-10-26T00:03:17;11.45;;;5.30;;
69523;SDS011;56723;42.694;23.286;2022-10-26T00:05:45;13.73;;;6.32;;
69523;SDS011;56723;42.694;23.286;2022-10-26T00:08:12;13.90;;;7.88;;
69523;SDS011;56723;42.694;23.286;2022-10-26T00:10:39;11.63;;;5.40;;
69523;SDS011;56723;42.694;23.286;2022-10-26T00:13:08;12.25;;;5.30;;
69523;SDS011;56723;42.694;23.286;2022-10-26T00:15:40;14.00;;;7.00;;
69523;SDS011;56723;42.694;23.286;2022-10-26T00:18:08;14.20;;;6.15;;
69523;SDS011;56723;42.694;23.286;2022-10-26T00:20:35;15.27;;;7.05;;
69523;SDS011;56723;42.694;23.286;2022-10-26T00:23:02;11.05;;;5.57;;
69523;SDS011;56723;42.694;23.286;2022-10-26T00:25:29;12.27;;;6.30;;
69523;SDS011;56723;42.694;23.286;2022-10-26T00:27:56;12.00;;;5.15;;
69523;SDS011;56723;42.694;23.286;2022-10-26T00:30:23;10.82;;;5.95;;
69523;SDS011;56723;42.694;23.286;2022-10-26T00:32:51;10.38;;;6.00;;
69523;SDS011;56723;42.694;23.286;2022-10-26T00:35:19;13.82;;;5.28;;
69523;SDS011;56723;42.694;23.286;2022-10-26T00:37:59;12.43;;;6.78;;
69523;SDS011;56723;42.694;23.286;2022-10-26T00:40:27;10.40;;;4.22;;
69523;SDS011;56723;42.694;23.286;2022-10-26T00:42:55;11.98;;;5.35;;
69523;SDS011;56723;42.694;23.286;2022-10-26T00:48:04;11.02;;;5.68;;
69523;SDS011;56723;42.694;23.286;2022-10-26T00:50:36;11.80;;;6.20;;
69523;SDS011;56723;42.694;23.286;2022-10-26T00:53:06;12.50;;;5.50;;
69523;SDS011;56723;42.694;23.286;2022-10-26T00:55:36;14.65;;;6.53;;
69523;SDS011;56723;42.694;23.286;2022-10-26T00:58:07;13.40;;;5.60;;
69523;SDS011;56723;42.694;23.286;2022-10-26T01:00:35;13.98;;;5.22;;
69523;SDS011;56723;42.694;23.286;2022-10-26T01:03:04;11.32;;;5.10;;
69523;SDS011;56723;42.694;23.286;2022-10-26T01:05:33;11.23;;;5.05;;
69523;SDS011;56723;42.694;23.286;2022-10-26T01:08:03;15.90;;;5.35;;
69523;SDS011;56723;42.694;23.286;2022-10-26T01:10:30;9.52;;;4.32;;
69523;SDS011;56723;42.694;23.286;2022-10-26T01:12:57;13.68;;;4.55;;
69523;SDS011;56723;42.694;23.286;2022-10-26T01:15:30;13.75;;;5.18;;
69523;SDS011;56723;42.694;23.286;2022-10-26T01:20:48;10.65;;;4.72;;
69523;SDS011;56723;42.694;23.286;2022-10-26T01:26:45;8.38;;;4.75;;
69523;SDS011;56723;42.694;23.286;2022-10-26T01:32:26;9.38;;;5.18;;
69523;SDS011;56723;42.694;23.286;2022-10-26T01:37:40;9.50;;;4.75;;
69523;SDS011;56723;42.694;23.286;2022-10-26T01:40:18;9.48;;;5.18;;
69523;SDS011;56723;42.694;23.286;2022-10-26T01:42:52;9.43;;;5.05;;
69523;SDS011;56723;42.694;23.286;2022-10-26T01:45:22;7.65;;;4.40;;
69523;SDS011;56723;42.694;23.286;2022-10-26T01:47:51;8.07;;;4.10;;
69523;SDS011;56723;42.694;23.286;2022-10-26T01:50:19;9.60;;;4.47;;
69523;SDS011;56723;42.694;23.286;2022-10-26T01:52:48;9.30;;;4.80;;
69523;SDS011;56723;42.694;23.286;2022-10-26T01:58:04;11.88;;;6.00;;
69523;SDS011;56723;42.694;23.286;2022-10-26T02:00:38;9.70;;;5.57;;
69523;SDS011;56723;42.694;23.286;2022-10-26T02:03:27;11.73;;;5.15;;
69523;SDS011;56723;42.694;23.286;2022-10-26T02:19:51;15.30;;;6.80;;
69523;SDS011;56723;42.694;23.286;2022-10-26T02:22:41;17.27;;;6.93;;
69523;SDS011;56723;42.694;23.286;2022-10-26T02:25:11;13.27;;;6.18;;
69523;SDS011;56723;42.694;23.286;2022-10-26T02:27:44;14.40;;;5.85;;
69523;SDS011;56723;42.694;23.286;2022-10-26T02:30:16;11.60;;;6.55;;
69523;SDS011;56723;42.694;23.286;2022-10-26T02:32:45;10.18;;;5.80;;
69523;SDS011;56723;42.694;23.286;2022-10-26T02:35:15;9.10;;;6.47;;
69523;SDS011;56723;42.694;23.286;2022-10-26T02:37:46;10.98;;;6.30;;
69523;SDS011;56723;42.694;23.286;2022-10-26T02:40:16;12.65;;;6.35;;
69523;SDS011;56723;42.694;23.286;2022-10-26T02:42:46;7.93;;;5.38;;
69523;SDS011;56723;42.694;23.286;2022-10-26T02:45:16;10.82;;;5.82;;
69523;SDS011;56723;42.694;23.286;2022-10-26T02:47:48;12.60;;;6.00;;
69523;SDS011;56723;42.694;23.286;2022-10-26T02:50:15;10.18;;;5.72;;
69523;SDS011;56723;42.694;23.286;2022-10-26T02:52:48;8.50;;;4.72;;
69523;SDS011;56723;42.694;23.286;2022-10-26T02:55:27;11.63;;;5.70;;
69523;SDS011;56723;42.694;23.286;2022-10-26T02:58:00;11.30;;;5.72;;
69523;SDS011;56723;42.694;23.286;2022-10-26T03:00:31;9.30;;;6.03;;
69523;SDS011;56723;42.694;23.286;2022-10-26T03:02:59;13.20;;;6.30;;
69523;SDS011;56723;42.694;23.286;2022-10-26T03:05:29;13.43;;;6.50;;
69523;SDS011;56723;42.694;23.286;2022-10-26T03:07:58;13.55;;;6.50;;
69523;SDS011;56723;42.694;23.286;2022-10-26T03:10:26;8.30;;;5.90;;
69523;SDS011;56723;42.694;23.286;2022-10-26T03:12:53;10.00;;;6.00;;
69523;SDS011;56723;42.694;23.286;2022-10-26T03:15:20;14.50;;;6.38;;
69523;SDS011;56723;42.694;23.286;2022-10-26T03:17:47;11.82;;;7.35;;
69523;SDS011;56723;42.694;23.286;2022-10-26T03:20:14;15.65;;;8.13;;
69523;SDS011;56723;42.694;23.286;2022-10-26T03:22:41;19.80;;;8.35;;
69523;SDS011;56723;42.694;23.286;2022-10-26T03:25:08;17.98;;;7.80;;
69523;SDS011;56723;42.694;23.286;2022-10-26T03:27:35;13.48;;;7.88;;
69523;SDS011;56723;42.694;23.286;2022-10-26T03:30:03;16.23;;;8.65;;
69523;SDS011;56723;42.694;23.286;2022-10-26T03:32:30;17.92;;;7.68;;
69523;SDS011;56723;42.694;23.286;2022-10-26T03:34:57;15.65;;;8.18;;
69523;SDS011;56723;42.694;23.286;2022-10-26T03:37:24;14.48;;;8.25;;
69523;SDS011;56723;42.694;23.286;2022-10-26T03:39:51;15.02;;;9.20;;
69523;SDS011;56723;42.694;23.286;2022-10-26T03:42:18;13.07;;;8.05;;
69523;SDS011;56723;42.694;23.286;2022-10-26T03:44:45;16.92;;;9.30;;
69523;SDS011;56723;42.694;23.286;2022-10-26T03:47:13;19.92;;;9.68;;
69523;SDS011;56723;42.694;23.286;2022-10-26T03:49:46;14.93;;;8.23;;
69523;SDS011;56723;42.694;23.286;2022-10-26T03:52:13;18.92;;;8.50;;
69523;SDS011;56723;42.694;23.286;2022-10-26T03:54:40;19.92;;;8.82;;
69523;SDS011;56723;42.694;23.286;2022-10-26T03:57:07;16.08;;;9.30;;
69523;SDS011;56723;42.694;23.286;2022-10-26T03:59:34;18.25;;;8.98;;
69523;SDS011;56723;42.694;23.286;2022-10-26T04:02:00;14.45;;;8.13;;
69523;SDS011;56723;42.694;23.286;2022-10-26T04:04:27;14.88;;;8.15;;
69523;SDS011;56723;42.694;23.286;2022-10-26T04:06:54;22.10;;;8.32;;
69523;SDS011;56723;42.694;23.286;2022-10-26T04:09:21;15.98;;;8.77;;
69523;SDS011;56723;42.694;23.286;2022-10-26T04:11:48;16.33;;;8.52;;
69523;SDS011;56723;42.694;23.286;2022-10-26T04:14:15;16.58;;;9.20;;
69523;SDS011;56723;42.694;23.286;2022-10-26T04:16:42;19.08;;;8.50;;
69523;SDS011;56723;42.694;23.286;2022-10-26T04:19:09;13.80;;;7.63;;
69523;SDS011;56723;42.694;23.286;2022-10-26T04:21:36;19.77;;;7.75;;
69523;SDS011;56723;42.694;23.286;2022-10-26T04:24:02;18.75;;;7.68;;
69523;SDS011;56723;42.694;23.286;2022-10-26T04:26:30;14.38;;;8.27;;
69523;SDS011;56723;42.694;23.286;2022-10-26T04:28:56;13.52;;;7.75;;
69523;SDS011;56723;42.694;23.286;2022-10-26T04:31:23;10.88;;;6.85;;
69523;SDS011;56723;42.694;23.286;2022-10-26T04:33:50;17.00;;;8.73;;
69523;SDS011;56723;42.694;23.286;2022-10-26T04:36:17;15.20;;;8.52;;
69523;SDS011;56723;42.694;23.286;2022-10-26T04:38:44;13.55;;;6.90;;
69523;SDS011;56723;42.694;23.286;2022-10-26T04:41:10;12.57;;;7.80;;
69523;SDS011;56723;42.694;23.286;2022-10-26T04:43:37;17.20;;;8.75;;
69523;SDS011;56723;42.694;23.286;2022-10-26T04:46:04;14.15;;;7.40;;
69523;SDS011;56723;42.694;23.286;2022-10-26T04:48:31;15.55;;;7.60;;
69523;SDS011;56723;42.694;23.286;2022-10-26T04:50:58;22.08;;;13.60;;
69523;SDS011;56723;42.694;23.286;2022-10-26T04:53:25;13.82;;;6.72;;
69523;SDS011;56723;42.694;23.286;2022-10-26T04:55:57;15.18;;;7.78;;
69523;SDS011;56723;42.694;23.286;2022-10-26T04:58:26;20.45;;;8.23;;
69523;SDS011;56723;42.694;23.286;2022-10-26T05:00:53;14.57;;;7.60;;
69523;SDS011;56723;42.694;23.286;2022-10-26T05:03:21;16.98;;;6.93;;
69523;SDS011;56723;42.694;23.286;2022-10-26T05:05:48;16.98;;;7.35;;
69523;SDS011;56723;42.694;23.286;2022-10-26T05:08:15;13.55;;;8.25;;
69523;SDS011;56723;42.694;23.286;2022-10-26T05:10:46;12.60;;;7.80;;
69523;SDS011;56723;42.694;23.286;2022-10-26T05:13:14;15.82;;;7.47;;
69523;SDS011;56723;42.694;23.286;2022-10-26T05:15:41;15.15;;;8.27;;
69523;SDS011;56723;42.694;23.286;2022-10-26T05:18:08;15.05;;;7.95;;
69523;SDS011;56723;42.694;23.286;2022-10-26T05:20:35;18.20;;;8.60;;
69523;SDS011;56723;42.694;23.286;2022-10-26T05:23:03;13.40;;;7.72;;
69523;SDS011;56723;42.694;23.286;2022-10-26T05:25:33;15.02;;;8.00;;
69523;SDS011;56723;42.694;23.286;2022-10-26T05:28:03;11.98;;;6.88;;
69523;SDS011;56723;42.694;23.286;2022-10-26T05:30:33;15.52;;;7.78;;
69523;SDS011;56723;42.694;23.286;2022-10-26T05:33:00;14.68;;;8.98;;
69523;SDS011;56723;42.694;23.286;2022-10-26T05:35:31;17.48;;;9.77;;
69523;SDS011;56723;42.694;23.286;2022-10-26T05:37:58;18.15;;;9.38;;
69523;SDS011;56723;42.694;23.286;2022-10-26T05:40:26;14.93;;;8.25;;
69523;SDS011;56723;42.694;23.286;2022-10-26T05:42:58;17.23;;;9.32;;
69523;SDS011;56723;42.694;23.286;2022-10-26T05:45:26;15.43;;;8.60;;
69523;SDS011;56723;42.694;23.286;2022-10-26T05:47:53;15.25;;;7.78;;
69523;SDS011;56723;42.694;23.286;2022-10-26T05:50:26;13.32;;;8.80;;
69523;SDS011;56723;42.694;23.286;2022-10-26T05:52:53;14.48;;;8.45;;
69523;SDS011;56723;42.694;23.286;2022-10-26T05:55:21;18.00;;;8.90;;
69523;SDS011;56723;42.694;23.286;2022-10-26T05:57:48;19.23;;;8.52;;
69523;SDS011;56723;42.694;23.286;2022-10-26T06:00:17;16.45;;;9.02;;
69523;SDS011;56723;42.694;23.286;2022-10-26T06:05:17;9.88;;;7.57;;
69523;SDS011;56723;42.694;23.286;2022-10-26T06:07:48;14.07;;;7.88;;
69523;SDS011;56723;42.694;23.286;2022-10-26T06:10:16;13.40;;;7.18;;
69523;SDS011;56723;42.694;23.286;2022-10-26T06:12:44;14.30;;;7.80;;
69523;SDS011;56723;42.694;23.286;2022-10-26T06:15:13;13.07;;;8.27;;
69523;SDS011;56723;42.694;23.286;2022-10-26T06:23:19;14.02;;;5.90;;
69523;SDS011;56723;42.694;23.286;2022-10-26T06:31:25;11.88;;;5.60;;
69523;SDS011;56723;42.694;23.286;2022-10-26T06:33:55;12.68;;;5.50;;
69523;SDS011;56723;42.694;23.286;2022-10-26T06:36:24;11.30;;;5.03;;
69523;SDS011;56723;42.694;23.286;2022-10-26T06:38:54;11.23;;;4.75;;
69523;SDS011;56723;42.694;23.286;2022-10-26T06:41:33;7.68;;;4.78;;
69523;SDS011;56723;42.694;23.286;2022-10-26T06:44:01;9.43;;;5.47;;
69523;SDS011;56723;42.694;23.286;2022-10-26T06:49:09;7.55;;;4.18;;
69523;SDS011;56723;42.694;23.286;2022-10-26T06:54:46;11.80;;;6.55;;
69523;SDS011;56723;42.694;23.286;2022-10-26T06:57:21;8.85;;;5.20;;
69523;SDS011;56723;42.694;23.286;2022-10-26T06:59:49;11.90;;;5.38;;
69523;SDS011;56723;42.694;23.286;2022-10-26T07:02:28;10.70;;;4.30;;
69523;SDS011;56723;42.694;23.286;2022-10-26T07:04:55;8.40;;;4.43;;
69523;SDS011;56723;42.694;23.286;2022-10-26T07:07:23;9.93;;;4.25;;
69523;SDS011;56723;42.694;23.286;2022-10-26T07:09:52;9.18;;;4.20;;
69523;SDS011;56723;42.694;23.286;2022-10-26T07:12:19;9.35;;;5.10;;
69523;SDS011;56723;42.694;23.286;2022-10-26T07:14:46;7.85;;;5.07;;
69523;SDS011;56723;42.694;23.286;2022-10-26T07:17:13;9.35;;;4.00;;
69523;SDS011;56723;42.694;23.286;2022-10-26T07:19:40;9.20;;;4.90;;
69523;SDS011;56723;42.694;23.286;2022-10-26T07:22:10;11.95;;;4.63;;
69523;SDS011;56723;42.694;23.286;2022-10-26T07:24:37;7.65;;;4.07;;
69523;SDS011;56723;42.694;23.286;2022-10-26T07:27:05;16.60;;;4.90;;
69523;SDS011;56723;42.694;23.286;2022-10-26T07:29:32;9.25;;;5.18;;
69523;SDS011;56723;42.694;23.286;2022-10-26T07:32:01;7.53;;;4.82;;
69523;SDS011;56723;42.694;23.286;2022-10-26T07:34:28;5.47;;;4.03;;
69523;SDS011;56723;42.694;23.286;2022-10-26T07:36:55;6.72;;;4.15;;
69523;SDS011;56723;42.694;23.286;2022-10-26T07:39:22;9.43;;;4.28;;
69523;SDS011;56723;42.694;23.286;2022-10-26T07:41:49;10.90;;;5.65;;
69523;SDS011;56723;42.694;23.286;2022-10-26T07:44:16;7.75;;;5.00;;
69523;SDS011;56723;42.694;23.286;2022-10-26T07:46:42;7.70;;;4.03;;
69523;SDS011;56723;42.694;23.286;2022-10-26T07:49:10;6.07;;;3.72;;
69523;SDS011;56723;42.694;23.286;2022-10-26T07:51:37;7.60;;;5.05;;
69523;SDS011;56723;42.694;23.286;2022-10-26T07:54:03;9.52;;;5.55;;
69523;SDS011;56723;42.694;23.286;2022-10-26T07:56:30;7.78;;;4.47;;
69523;SDS011;56723;42.694;23.286;2022-10-26T07:58:57;9.35;;;4.55;;
69523;SDS011;56723;42.694;23.286;2022-10-26T08:01:24;9.05;;;4.35;;
69523;SDS011;56723;42.694;23.286;2022-10-26T08:03:51;6.00;;;3.60;;
69523;SDS011;56723;42.694;23.286;2022-10-26T08:06:22;6.63;;;3.40;;
69523;SDS011;56723;42.694;23.286;2022-10-26T08:08:49;5.20;;;3.38;;
69523;SDS011;56723;42.694;23.286;2022-10-26T08:11:17;5.95;;;2.88;;
69523;SDS011;56723;42.694;23.286;2022-10-26T08:13:44;8.15;;;3.63;;
69523;SDS011;56723;42.694;23.286;2022-10-26T08:16:12;5.88;;;2.78;;
69523;SDS011;56723;42.694;23.286;2022-10-26T08:18:39;5.97;;;2.47;;
69523;SDS011;56723;42.694;23.286;2022-10-26T08:21:08;6.13;;;2.60;;
69523;SDS011;56723;42.694;23.286;2022-10-26T08:23:43;6.85;;;2.00;;
69523;SDS011;56723;42.694;23.286;2022-10-26T08:26:10;2.83;;;2.30;;
69523;SDS011;56723;42.694;23.286;2022-10-26T08:28:37;4.53;;;2.22;;
69523;SDS011;56723;42.694;23.286;2022-10-26T08:31:05;3.97;;;2.35;;
69523;SDS011;56723;42.694;23.286;2022-10-26T08:33:32;5.13;;;1.77;;
69523;SDS011;56723;42.694;23.286;2022-10-26T08:36:00;4.65;;;1.73;;
69523;SDS011;56723;42.694;23.286;2022-10-26T08:38:29;2.63;;;1.85;;
69523;SDS011;56723;42.694;23.286;2022-10-26T08:40:56;2.25;;;1.25;;
69523;SDS011;56723;42.694;23.286;2022-10-26T08:48:57;5.95;;;2.10;;
69523;SDS011;56723;42.694;23.286;2022-10-26T08:51:33;6.35;;;2.30;;
69523;SDS011;56723;42.694;23.286;2022-10-26T08:56:53;4.57;;;1.80;;
69523;SDS011;56723;42.694;23.286;2022-10-26T08:59:30;5.72;;;1.85;;
69523;SDS011;56723;42.694;23.286;2022-10-26T09:02:03;5.15;;;1.42;;
69523;SDS011;56723;42.694;23.286;2022-10-26T09:04:37;3.80;;;1.70;;
69523;SDS011;56723;42.694;23.286;2022-10-26T09:07:49;5.07;;;1.55;;
69523;SDS011;56723;42.694;23.286;2022-10-26T09:15:18;4.95;;;2.17;;
69523;SDS011;56723;42.694;23.286;2022-10-26T09:25:57;4.47;;;1.92;;
69523;SDS011;56723;42.694;23.286;2022-10-26T09:28:27;3.53;;;1.40;;
69523;SDS011;56723;42.694;23.286;2022-10-26T09:30:59;3.80;;;1.63;;
69523;SDS011;56723;42.694;23.286;2022-10-26T09:33:28;2.13;;;0.50;;
69523;SDS011;56723;42.694;23.286;2022-10-26T09:36:03;2.95;;;0.65;;
69523;SDS011;56723;42.694;23.286;2022-10-26T09:41:45;2.00;;;1.10;;
69523;SDS011;56723;42.694;23.286;2022-10-26T09:47:05;2.88;;;0.50;;
69523;SDS011;56723;42.694;23.286;2022-10-26T09:49:44;3.63;;;0.80;;
69523;SDS011;56723;42.694;23.286;2022-10-26T09:52:15;2.00;;;0.60;;
69523;SDS011;56723;42.694;23.286;2022-10-26T09:54:42;2.08;;;0.65;;
69523;SDS011;56723;42.694;23.286;2022-10-26T09:57:11;4.07;;;0.82;;
69523;SDS011;56723;42.694;23.286;2022-10-26T09:59:41;3.13;;;0.50;;
69523;SDS011;56723;42.694;23.286;2022-10-26T10:05:25;3.05;;;0.52;;
69523;SDS011;56723;42.694;23.286;2022-10-26T10:08:23;4.55;;;1.20;;
69523;SDS011;56723;42.694;23.286;2022-10-26T10:10:56;3.17;;;0.65;;
69523;SDS011;56723;42.694;23.286;2022-10-26T10:13:30;4.57;;;0.80;;
69523;SDS011;56723;42.694;23.286;2022-10-26T10:18:36;1.65;;;0.60;;
69523;SDS011;56723;42.694;23.286;2022-10-26T10:21:04;4.10;;;1.23;;
69523;SDS011;56723;42.694;23.286;2022-10-26T10:23:49;4.75;;;0.80;;
69523;SDS011;56723;42.694;23.286;2022-10-26T10:26:20;2.90;;;0.73;;
69523;SDS011;56723;42.694;23.286;2022-10-26T10:28:59;4.60;;;0.60;;
69523;SDS011;56723;42.694;23.286;2022-10-26T10:31:30;3.67;;;0.57;;
69523;SDS011;56723;42.694;23.286;2022-10-26T10:33:58;2.20;;;0.75;;
69523;SDS011;56723;42.694;23.286;2022-10-26T10:36:26;4.07;;;0.65;;
69523;SDS011;56723;42.694;23.286;2022-10-26T10:38:55;2.33;;;0.50;;
69523;SDS011;56723;42.694;23.286;2022-10-26T10:41:27;4.50;;;0.70;;
69523;SDS011;56723;42.694;23.286;2022-10-26T10:44:00;3.50;;;0.70;;
69523;SDS011;56723;42.694;23.286;2022-10-26T10:46:32;5.57;;;0.50;;
69523;SDS011;56723;42.694;23.286;2022-10-26T10:49:00;3.78;;;0.80;;
69523;SDS011;56723;42.694;23.286;2022-10-26T10:51:30;3.95;;;0.60;;
69523;SDS011;56723;42.694;23.286;2022-10-26T10:54:02;1.73;;;0.40;;
69523;SDS011;56723;42.694;23.286;2022-10-26T10:56:32;4.57;;;0.70;;
69523;SDS011;56723;42.694;23.286;2022-10-26T11:01:44;4.07;;;1.10;;
69523;SDS011;56723;42.694;23.286;2022-10-26T11:07:00;2.65;;;0.40;;
69523;SDS011;56723;42.694;23.286;2022-10-26T11:09:30;3.80;;;0.63;;
69523;SDS011;56723;42.694;23.286;2022-10-26T11:14:44;2.00;;;0.40;;
69523;SDS011;56723;42.694;23.286;2022-10-26T11:17:44;3.53;;;0.55;;
69523;SDS011;56723;42.694;23.286;2022-10-26T11:20:15;2.97;;;0.40;;
69523;SDS011;56723;42.694;23.286;2022-10-26T11:22:57;2.25;;;0.40;;
69523;SDS011;56723;42.694;23.286;2022-10-26T11:25:54;2.60;;;0.30;;
69523;SDS011;56723;42.694;23.286;2022-10-26T11:31:11;1.83;;;0.38;;
69523;SDS011;56723;42.694;23.286;2022-10-26T11:33:58;1.85;;;0.20;;
69523;SDS011;56723;42.694;23.286;2022-10-26T11:36:35;0.95;;;0.20;;
69523;SDS011;56723;42.694;23.286;2022-10-26T11:42:25;0.60;;;0.20;;
69523;SDS011;56723;42.694;23.286;2022-10-26T11:45:09;1.67;;;0.28;;
69523;SDS011;56723;42.694;23.286;2022-10-26T11:47:50;2.00;;;0.20;;
69523;SDS011;56723;42.694;23.286;2022-10-26T11:50:22;2.63;;;0.40;;
69523;SDS011;56723;42.694;23.286;2022-10-26T11:52:53;1.00;;;0.20;;
69523;SDS011;56723;42.694;23.286;2022-10-26T11:55:48;3.60;;;0.20;;
69523;SDS011;56723;42.694;23.286;2022-10-26T11:58:20;2.15;;;0.28;;
69523;SDS011;56723;42.694;23.286;2022-10-26T12:00:59;0.55;;;0.20;;
69523;SDS011;56723;42.694;23.286;2022-10-26T12:03:33;1.27;;;0.70;;
69523;SDS011;56723;42.694;23.286;2022-10-26T12:06:05;2.05;;;0.45;;
69523;SDS011;56723;42.694;23.286;2022-10-26T12:08:36;0.93;;;0.22;;
69523;SDS011;56723;42.694;23.286;2022-10-26T12:11:08;0.77;;;0.10;;
69523;SDS011;56723;42.694;23.286;2022-10-26T12:16:47;3.22;;;0.17;;
69523;SDS011;56723;42.694;23.286;2022-10-26T12:22:10;0.85;;;0.10;;
69523;SDS011;56723;42.694;23.286;2022-10-26T12:24:44;2.20;;;0.30;;
69523;SDS011;56723;42.694;23.286;2022-10-26T12:30:27;0.80;;;0.10;;
69523;SDS011;56723;42.694;23.286;2022-10-26T12:32:54;1.55;;;0.10;;
69523;SDS011;56723;42.694;23.286;2022-10-26T12:35:35;3.45;;;0.20;;
69523;SDS011;56723;42.694;23.286;2022-10-26T12:43:32;1.48;;;0.13;;
69523;SDS011;56723;42.694;23.286;2022-10-26T12:56:25;1.80;;;0.10;;
69523;SDS011;56723;42.694;23.286;2022-10-26T12:59:26;0.65;;;0.10;;
69523;SDS011;56723;42.694;23.286;2022-10-26T13:04:58;3.58;;;0.60;;
69523;SDS011;56723;42.694;23.286;2022-10-26T13:07:46;2.20;;;0.40;;
69523;SDS011;56723;42.694;23.286;2022-10-26T13:21:18;2.10;;;0.40;;
69523;SDS011;56723;42.694;23.286;2022-10-26T13:26:27;2.63;;;0.35;;
69523;SDS011;56723;42.694;23.286;2022-10-26T13:28:59;2.97;;;0.20;;
69523;SDS011;56723;42.694;23.286;2022-10-26T13:34:01;1.50;;;0.20;;
69523;SDS011;56723;42.694;23.286;2022-10-26T13:37:08;2.22;;;0.57;;
69523;SDS011;56723;42.694;23.286;2022-10-26T13:39:49;1.08;;;0.20;;
69523;SDS011;56723;42.694;23.286;2022-10-26T13:42:25;2.10;;;0.30;;
69523;SDS011;56723;42.694;23.286;2022-10-26T13:45:00;3.10;;;0.38;;
69523;SDS011;56723;42.694;23.286;2022-10-26T13:47:39;5.20;;;2.13;;
69523;SDS011;56723;42.694;23.286;2022-10-26T13:50:27;3.00;;;0.20;;
69523;SDS011;56723;42.694;23.286;2022-10-26T13:53:06;2.42;;;0.30;;
69523;SDS011;56723;42.694;23.286;2022-10-26T13:58:27;3.08;;;0.60;;
69523;SDS011;56723;42.694;23.286;2022-10-26T14:01:01;5.40;;;0.77;;
69523;SDS011;56723;42.694;23.286;2022-10-26T14:03:35;4.60;;;0.63;;
69523;SDS011;56723;42.694;23.286;2022-10-26T14:06:15;2.47;;;0.40;;
69523;SDS011;56723;42.694;23.286;2022-10-26T14:08:48;1.50;;;0.30;;
69523;SDS011;56723;42.694;23.286;2022-10-26T14:13:46;1.05;;;0.20;;
69523;SDS011;56723;42.694;23.286;2022-10-26T14:16:16;1.00;;;0.20;;
69523;SDS011;56723;42.694;23.286;2022-10-26T14:18:46;1.25;;;0.30;;
69523;SDS011;56723;42.694;23.286;2022-10-26T14:21:18;2.17;;;0.47;;
69523;SDS011;56723;42.694;23.286;2022-10-26T14:26:29;1.15;;;0.38;;
69523;SDS011;56723;42.694;23.286;2022-10-26T14:29:03;2.15;;;0.60;;
69523;SDS011;56723;42.694;23.286;2022-10-26T14:31:39;3.60;;;0.25;;
69523;SDS011;56723;42.694;23.286;2022-10-26T14:34:08;1.77;;;0.35;;
69523;SDS011;56723;42.694;23.286;2022-10-26T14:36:38;4.75;;;0.40;;
69523;SDS011;56723;42.694;23.286;2022-10-26T14:39:07;3.83;;;0.50;;
69523;SDS011;56723;42.694;23.286;2022-10-26T14:41:41;2.28;;;0.30;;
69523;SDS011;56723;42.694;23.286;2022-10-26T14:44:13;6.47;;;0.50;;
69523;SDS011;56723;42.694;23.286;2022-10-26T14:46:43;3.03;;;0.55;;
69523;SDS011;56723;42.694;23.286;2022-10-26T14:49:18;2.60;;;0.55;;
69523;SDS011;56723;42.694;23.286;2022-10-26T14:51:46;2.42;;;0.50;;
69523;SDS011;56723;42.694;23.286;2022-10-26T14:54:19;5.05;;;0.95;;
69523;SDS011;56723;42.694;23.286;2022-10-26T14:56:48;2.13;;;0.40;;
69523;SDS011;56723;42.694;23.286;2022-10-26T14:59:26;3.53;;;1.00;;
69523;SDS011;56723;42.694;23.286;2022-10-26T15:02:00;2.83;;;0.60;;
69523;SDS011;56723;42.694;23.286;2022-10-26T15:04:57;4.25;;;0.50;;
69523;SDS011;56723;42.694;23.286;2022-10-26T15:07:35;2.95;;;0.90;;
69523;SDS011;56723;42.694;23.286;2022-10-26T15:10:04;6.93;;;1.75;;
69523;SDS011;56723;42.694;23.286;2022-10-26T15:12:32;6.18;;;2.28;;
69523;SDS011;56723;42.694;23.286;2022-10-26T15:17:35;10.10;;;4.57;;
69523;SDS011;56723;42.694;23.286;2022-10-26T15:20:05;9.90;;;4.70;;
69523;SDS011;56723;42.694;23.286;2022-10-26T15:22:33;10.52;;;4.80;;
69523;SDS011;56723;42.694;23.286;2022-10-26T15:25:01;11.93;;;3.70;;
69523;SDS011;56723;42.694;23.286;2022-10-26T15:27:30;9.43;;;4.43;;
69523;SDS011;56723;42.694;23.286;2022-10-26T15:30:10;10.88;;;4.65;;
69523;SDS011;56723;42.694;23.286;2022-10-26T15:32:48;11.25;;;5.18;;
69523;SDS011;56723;42.694;23.286;2022-10-26T15:37:47;9.05;;;3.22;;
69523;SDS011;56723;42.694;23.286;2022-10-26T15:40:15;7.75;;;3.55;;
69523;SDS011;56723;42.694;23.286;2022-10-26T15:42:43;11.73;;;3.17;;
69523;SDS011;56723;42.694;23.286;2022-10-26T15:47:41;7.18;;;3.38;;
69523;SDS011;56723;42.694;23.286;2022-10-26T15:50:15;6.18;;;2.75;;
69523;SDS011;56723;42.694;23.286;2022-10-26T15:52:43;5.95;;;2.10;;
69523;SDS011;56723;42.694;23.286;2022-10-26T15:55:15;9.10;;;2.25;;
69523;SDS011;56723;42.694;23.286;2022-10-26T15:57:42;9.38;;;3.10;;
69523;SDS011;56723;42.694;23.286;2022-10-26T16:00:13;8.38;;;2.10;;
69523;SDS011;56723;42.694;23.286;2022-10-26T16:02:42;8.18;;;3.47;;
69523;SDS011;56723;42.694;23.286;2022-10-26T16:05:11;11.60;;;2.70;;
69523;SDS011;56723;42.694;23.286;2022-10-26T16:07:39;8.00;;;2.35;;
69523;SDS011;56723;42.694;23.286;2022-10-26T16:10:12;9.63;;;2.35;;
69523;SDS011;56723;42.694;23.286;2022-10-26T16:12:42;10.05;;;3.22;;
69523;SDS011;56723;42.694;23.286;2022-10-26T16:15:14;7.60;;;2.67;;
69523;SDS011;56723;42.694;23.286;2022-10-26T16:17:45;6.80;;;2.55;;
69523;SDS011;56723;42.694;23.286;2022-10-26T16:20:19;7.30;;;3.33;;
69523;SDS011;56723;42.694;23.286;2022-10-26T16:22:52;6.90;;;2.53;;
69523;SDS011;56723;42.694;23.286;2022-10-26T16:25:21;13.32;;;3.67;;
69523;SDS011;56723;42.694;23.286;2022-10-26T16:27:51;9.73;;;2.90;;
69523;SDS011;56723;42.694;23.286;2022-10-26T16:30:18;7.43;;;3.38;;
69523;SDS011;56723;42.694;23.286;2022-10-26T16:32:46;10.52;;;3.35;;
69523;SDS011;56723;42.694;23.286;2022-10-26T16:35:14;11.90;;;4.05;;
69523;SDS011;56723;42.694;23.286;2022-10-26T16:37:41;11.07;;;4.30;;
69523;SDS011;56723;42.694;23.286;2022-10-26T16:40:08;6.95;;;3.10;;
69523;SDS011;56723;42.694;23.286;2022-10-26T16:42:35;8.57;;;4.53;;
69523;SDS011;56723;42.694;23.286;2022-10-26T16:45:02;9.50;;;4.80;;
69523;SDS011;56723;42.694;23.286;2022-10-26T16:47:31;9.00;;;4.50;;
69523;SDS011;56723;42.694;23.286;2022-10-26T16:50:01;14.18;;;4.50;;
69523;SDS011;56723;42.694;23.286;2022-10-26T16:52:29;9.35;;;4.10;;
69523;SDS011;56723;42.694;23.286;2022-10-26T16:54:56;12.70;;;4.65;;
69523;SDS011;56723;42.694;23.286;2022-10-26T16:57:23;15.65;;;6.53;;
69523;SDS011;56723;42.694;23.286;2022-10-26T16:59:50;12.70;;;4.57;;
69523;SDS011;56723;42.694;23.286;2022-10-26T17:02:17;12.70;;;5.25;;
69523;SDS011;56723;42.694;23.286;2022-10-26T17:04:44;22.45;;;10.98;;
69523;SDS011;56723;42.694;23.286;2022-10-26T17:07:11;12.02;;;4.75;;
69523;SDS011;56723;42.694;23.286;2022-10-26T17:09:37;10.00;;;3.25;;
69523;SDS011;56723;42.694;23.286;2022-10-26T17:12:04;12.38;;;5.20;;
69523;SDS011;56723;42.694;23.286;2022-10-26T17:14:31;12.10;;;4.55;;
69523;SDS011;56723;42.694;23.286;2022-10-26T17:16:58;9.77;;;4.97;;
69523;SDS011;56723;42.694;23.286;2022-10-26T17:19:25;13.15;;;5.40;;
69523;SDS011;56723;42.694;23.286;2022-10-26T17:21:52;16.42;;;8.55;;
69523;SDS011;56723;42.694;23.286;2022-10-26T17:24:19;14.40;;;6.63;;
69523;SDS011;56723;42.694;23.286;2022-10-26T17:26:46;13.90;;;5.95;;